Terminal Aerodrome Forecast
Issued by NWS

Home | Current Version | Previous Version | Text Only | Print | Product List | Glossary On
Versions: 1 2 3 4 5 6 7 8 9 10 11 12 13 14 15 16 17 18 19 20 21 22 23 24 25 26 27
000
FTUS43 KGRB 172300
TAFATW
TAF
KATW 172335Z 1800/1824 05005KT P6SM BKN018
     FM180200 05004KT P6SM SCT028
     FM180600 04004KT 6SM BR SCT007 BKN035
      TEMPO 1809/1813 2SM BR BKN007
     FM181400 14006KT 5SM BR BKN035 OVC060 PROB30 1816/1819 4SM SHRA
      BR OVC025
     FM181900 16007KT 5SM -SHRA BKN035=

USA.gov is the U.S. government's official web portal to all federal, state and local government web resources and services.